Time;durP1;ratioP1;P1;durP2;ratioP2;P2;SDS_P1;SDS_P2;PMS_P1;PMS_P2;Temp;Humidity;BMP_temperature;BMP_pressure;BME280_temperature;BME280_humidity;BME280_pressure;Samples;Min_cycle;Max_cycle;Signal;HPM_P1;HPM_P2
2021/02/14 00:00:37;;;;;;;15.35;9.5;;;;;;;-10.5;100;97061.75;;;;
2021/02/14 00:01:37;;;;;;;15.35;9.5;;;;;;;-10.5;100;97061.75;;;;
2021/02/14 00:02:38;;;;;;;15.35;9.5;;;;;;;-10.5;100;97061.75;;;;
2021/02/14 00:03:40;;;;;;;15.35;9.5;;;;;;;-10.5;100;97061.75;;;;
2021/02/14 00:04:41;;;;;;;15.35;9.5;;;;;;;-10.5;100;97061.75;;;;
2021/02/14 00:05:42;;;;;;;15.25;9.25;;;;;;;-10.23;100;97066.71;;;;
2021/02/14 00:06:42;;;;;;;15.25;9.25;;;;;;;-10.23;100;97066.71;;;;
2021/02/14 00:07:43;;;;;;;15.25;9.25;;;;;;;-10.23;100;97066.71;;;;
2021/02/14 00:08:43;;;;;;;15.25;9.25;;;;;;;-10.23;100;97066.71;;;;
2021/02/14 00:09:44;;;;;;;15.25;9.25;;;;;;;-10.23;100;97066.71;;;;
2021/02/14 00:10:45;;;;;;;15.25;9.25;;;;;;;-10.23;100;97066.71;;;;
2021/02/14 00:11:46;;;;;;;15.25;9.25;;;;;;;-10.23;100;97066.71;;;;
2021/02/14 00:12:46;;;;;;;15.25;9.25;;;;;;;-10.23;100;97066.71;;;;
2021/02/14 00:13:47;;;;;;;15.25;9.25;;;;;;;-10.23;100;97066.71;;;;
2021/02/14 00:14:47;;;;;;;15.25;9.25;;;;;;;-10.23;100;97066.71;;;;
2021/02/14 00:15:48;;;;;;;15.25;9.25;;;;;;;-10.23;100;97066.71;;;;
2021/02/14 00:16:49;;;;;;;12.75;8.6;;;;;;;-10.05;100;97066.68;;;;
2021/02/14 00:17:49;;;;;;;12.75;8.6;;;;;;;-10.05;100;97066.68;;;;
2021/02/14 00:18:50;;;;;;;12.75;8.6;;;;;;;-10.05;100;97066.68;;;;
2021/02/14 00:19:50;;;;;;;12.75;8.6;;;;;;;-10.05;100;97066.68;;;;
2021/02/14 00:20:51;;;;;;;12.75;8.6;;;;;;;-10.05;100;97066.68;;;;
2021/02/14 00:21:52;;;;;;;12.75;8.6;;;;;;;-10.05;100;97066.68;;;;
2021/02/14 00:22:53;;;;;;;12.75;8.6;;;;;;;-10.05;100;97066.68;;;;
2021/02/14 00:23:53;;;;;;;12.75;8.6;;;;;;;-10.05;100;97066.68;;;;
2021/02/14 00:24:54;;;;;;;12.75;8.6;;;;;;;-10.05;100;97066.68;;;;
2021/02/14 00:25:55;;;;;;;12.75;8.6;;;;;;;-10.05;100;97066.68;;;;
2021/02/14 00:26:55;;;;;;;15.1;8.35;;;;;;;-9.95;100;97064.06;;;;
2021/02/14 00:27:55;;;;;;;15.1;8.35;;;;;;;-9.95;100;97064.06;;;;
2021/02/14 00:28:56;;;;;;;15.1;8.35;;;;;;;-9.95;100;97064.06;;;;
2021/02/14 00:29:56;;;;;;;15.1;8.35;;;;;;;-9.95;100;97064.06;;;;
2021/02/14 00:30:57;;;;;;;15.1;8.35;;;;;;;-9.95;100;97064.06;;;;
2021/02/14 00:31:57;;;;;;;15.1;8.35;;;;;;;-9.95;100;97064.06;;;;
2021/02/14 00:32:58;;;;;;;15.1;8.35;;;;;;;-9.95;100;97064.06;;;;
2021/02/14 00:33:58;;;;;;;15.1;8.35;;;;;;;-9.95;100;97064.06;;;;
2021/02/14 00:34:58;;;;;;;15.1;8.35;;;;;;;-9.95;100;97064.06;;;;
2021/02/14 00:35:59;;;;;;;15.1;8.35;;;;;;;-9.95;100;97064.06;;;;
2021/02/14 00:36:59;;;;;;;15.1;8.35;;;;;;;-9.95;100;97064.06;;;;
2021/02/14 00:38:00;;;;;;;12.65;8.15;;;;;;;-9.93;100;97070.51;;;;
2021/02/14 00:39:00;;;;;;;12.65;8.15;;;;;;;-9.93;100;97070.51;;;;
2021/02/14 00:40:01;;;;;;;12.65;8.15;;;;;;;-9.93;100;97070.51;;;;
2021/02/14 00:41:03;;;;;;;12.65;8.15;;;;;;;-9.93;100;97070.51;;;;
2021/02/14 00:42:04;;;;;;;12.65;8.15;;;;;;;-9.93;100;97070.51;;;;
2021/02/14 00:43:05;;;;;;;12.65;8.15;;;;;;;-9.93;100;97070.51;;;;
2021/02/14 00:44:06;;;;;;;12.65;8.15;;;;;;;-9.93;100;97070.51;;;;
2021/02/14 00:45:07;;;;;;;12.65;8.15;;;;;;;-9.93;100;97070.51;;;;
2021/02/14 00:46:08;;;;;;;12.65;8.15;;;;;;;-9.93;100;97070.51;;;;
2021/02/14 00:47:09;;;;;;;12.65;8.15;;;;;;;-9.93;100;97070.51;;;;
2021/02/14 00:48:10;;;;;;;12.65;8.15;;;;;;;-9.93;100;97070.51;;;;
2021/02/14 00:49:10;;;;;;;12.05;8.050001;;;;;;;-10.02;100;97073.97;;;;
2021/02/14 00:50:11;;;;;;;12.05;8.050001;;;;;;;-10.02;100;97073.97;;;;
2021/02/14 00:51:11;;;;;;;12.05;8.050001;;;;;;;-10.02;100;97073.97;;;;
2021/02/14 00:52:12;;;;;;;12.05;8.050001;;;;;;;-10.02;100;97073.97;;;;
2021/02/14 00:53:13;;;;;;;12.05;8.050001;;;;;;;-10.02;100;97073.97;;;;
2021/02/14 00:54:13;;;;;;;12.05;8.050001;;;;;;;-10.02;100;97073.97;;;;
2021/02/14 00:55:14;;;;;;;12.05;8.050001;;;;;;;-10.02;100;97073.97;;;;
2021/02/14 00:56:16;;;;;;;12.05;8.050001;;;;;;;-10.02;100;97073.97;;;;
2021/02/14 00:57:17;;;;;;;12.05;8.050001;;;;;;;-10.02;100;97073.97;;;;
2021/02/14 00:58:17;;;;;;;12.05;8.050001;;;;;;;-10.02;100;97073.97;;;;
2021/02/14 00:59:18;;;;;;;13.3;9.000001;;;;;;;-10.09;100;97081.72;;;;
2021/02/14 01:00:18;;;;;;;13.3;9.000001;;;;;;;-10.09;100;97081.72;;;;
2021/02/14 01:01:19;;;;;;;13.3;9.000001;;;;;;;-10.09;100;97081.72;;;;
2021/02/14 01:02:20;;;;;;;13.3;9.000001;;;;;;;-10.09;100;97081.72;;;;
2021/02/14 01:03:20;;;;;;;13.3;9.000001;;;;;;;-10.09;100;97081.72;;;;
2021/02/14 01:04:21;;;;;;;13.3;9.000001;;;;;;;-10.09;100;97081.72;;;;
2021/02/14 01:05:21;;;;;;;13.3;9.000001;;;;;;;-10.09;100;97081.72;;;;
2021/02/14 01:06:22;;;;;;;13.3;9.000001;;;;;;;-10.09;100;97081.72;;;;
2021/02/14 01:07:22;;;;;;;13.3;9.000001;;;;;;;-10.09;100;97081.72;;;;
2021/02/14 01:08:23;;;;;;;13.3;9.000001;;;;;;;-10.09;100;97081.72;;;;
2021/02/14 01:09:23;;;;;;;13.3;9.000001;;;;;;;-10.09;100;97081.72;;;;
2021/02/14 01:10:24;;;;;;;14.35;8.799999;;;;;;;-10.23;100;97092.8;;;;
2021/02/14 01:11:25;;;;;;;14.35;8.799999;;;;;;;-10.23;100;97092.8;;;;
2021/02/14 01:12:25;;;;;;;14.35;8.799999;;;;;;;-10.23;100;97092.8;;;;
2021/02/14 01:13:26;;;;;;;14.35;8.799999;;;;;;;-10.23;100;97092.8;;;;
2021/02/14 01:14:27;;;;;;;14.35;8.799999;;;;;;;-10.23;100;97092.8;;;;
2021/02/14 01:15:27;;;;;;;14.35;8.799999;;;;;;;-10.23;100;97092.8;;;;
2021/02/14 01:16:28;;;;;;;14.35;8.799999;;;;;;;-10.23;100;97092.8;;;;
2021/02/14 01:17:29;;;;;;;14.35;8.799999;;;;;;;-10.23;100;97092.8;;;;
2021/02/14 01:18:29;;;;;;;14.35;8.799999;;;;;;;-10.23;100;97092.8;;;;
2021/02/14 01:19:30;;;;;;;14.35;8.799999;;;;;;;-10.23;100;97092.8;;;;
2021/02/14 01:20:30;;;;;;;13.15;8.550001;;;;;;;-10.36;100;97085.53;;;;
2021/02/14 01:21:31;;;;;;;13.15;8.550001;;;;;;;-10.36;100;97085.53;;;;
2021/02/14 01:22:31;;;;;;;13.15;8.550001;;;;;;;-10.36;100;97085.53;;;;
2021/02/14 01:23:32;;;;;;;13.15;8.550001;;;;;;;-10.36;100;97085.53;;;;
2021/02/14 01:24:33;;;;;;;13.15;8.550001;;;;;;;-10.36;100;97085.53;;;;
2021/02/14 01:25:33;;;;;;;13.15;8.550001;;;;;;;-10.36;100;97085.53;;;;
2021/02/14 01:26:34;;;;;;;13.15;8.550001;;;;;;;-10.36;100;97085.53;;;;
2021/02/14 01:27:35;;;;;;;13.15;8.550001;;;;;;;-10.36;100;97085.53;;;;
2021/02/14 01:28:36;;;;;;;13.15;8.550001;;;;;;;-10.36;100;97085.53;;;;
2021/02/14 01:29:36;;;;;;;13.15;8.550001;;;;;;;-10.36;100;97085.53;;;;
2021/02/14 01:30:37;;;;;;;13.15;8.550001;;;;;;;-10.36;100;97085.53;;;;
2021/02/14 01:31:37;;;;;;;14.25;8.700001;;;;;;;-10.52;100;97087.05;;;;
2021/02/14 01:32:37;;;;;;;14.25;8.700001;;;;;;;-10.52;100;97087.05;;;;
2021/02/14 01:33:38;;;;;;;14.25;8.700001;;;;;;;-10.52;100;97087.05;;;;
2021/02/14 01:34:39;;;;;;;14.25;8.700001;;;;;;;-10.52;100;97087.05;;;;
2021/02/14 01:35:39;;;;;;;14.25;8.700001;;;;;;;-10.52;100;97087.05;;;;
2021/02/14 01:36:40;;;;;;;14.25;8.700001;;;;;;;-10.52;100;97087.05;;;;
2021/02/14 01:37:41;;;;;;;14.25;8.700001;;;;;;;-10.52;100;97087.05;;;;
2021/02/14 01:38:41;;;;;;;14.25;8.700001;;;;;;;-10.52;100;97087.05;;;;
2021/02/14 01:39:42;;;;;;;14.25;8.700001;;;;;;;-10.52;100;97087.05;;;;
2021/02/14 01:40:43;;;;;;;14.25;8.700001;;;;;;;-10.52;100;97087.05;;;;
2021/02/14 01:41:43;;;;;;;14.55;9.500001;;;;;;;-10.63;100;97086.22;;;;
2021/02/14 01:42:44;;;;;;;14.55;9.500001;;;;;;;-10.63;100;97086.22;;;;
2021/02/14 01:43:44;;;;;;;14.55;9.500001;;;;;;;-10.63;100;97086.22;;;;
2021/02/14 01:44:45;;;;;;;14.55;9.500001;;;;;;;-10.63;100;97086.22;;;;
2021/02/14 01:45:46;;;;;;;14.55;9.500001;;;;;;;-10.63;100;97086.22;;;;
2021/02/14 01:46:46;;;;;;;14.55;9.500001;;;;;;;-10.63;100;97086.22;;;;
2021/02/14 01:47:47;;;;;;;14.55;9.500001;;;;;;;-10.63;100;97086.22;;;;
2021/02/14 01:48:47;;;;;;;14.55;9.500001;;;;;;;-10.63;100;97086.22;;;;
2021/02/14 01:49:50;;;;;;;14.55;9.500001;;;;;;;-10.63;100;97086.22;;;;
2021/02/14 01:50:51;;;;;;;14.55;9.500001;;;;;;;-10.63;100;97086.22;;;;
2021/02/14 01:51:51;;;;;;;14.55;9.500001;;;;;;;-10.63;100;97086.22;;;;
2021/02/14 01:52:52;;;;;;;13.65;8.65;;;;;;;-10.78;100;97070.36;;;;
2021/02/14 01:53:52;;;;;;;13.65;8.65;;;;;;;-10.78;100;97070.36;;;;
2021/02/14 01:54:53;;;;;;;13.65;8.65;;;;;;;-10.78;100;97070.36;;;;
2021/02/14 01:55:53;;;;;;;13.65;8.65;;;;;;;-10.78;100;97070.36;;;;
2021/02/14 01:56:54;;;;;;;13.65;8.65;;;;;;;-10.78;100;97070.36;;;;
2021/02/14 01:57:54;;;;;;;13.65;8.65;;;;;;;-10.78;100;97070.36;;;;
2021/02/14 01:58:55;;;;;;;13.65;8.65;;;;;;;-10.78;100;97070.36;;;;
2021/02/14 01:59:55;;;;;;;13.65;8.65;;;;;;;-10.78;100;97070.36;;;;
2021/02/14 02:00:56;;;;;;;13.65;8.65;;;;;;;-10.78;100;97070.36;;;;
2021/02/14 02:01:57;;;;;;;13.65;8.65;;;;;;;-10.78;100;97070.36;;;;
2021/02/14 02:02:57;;;;;;;13.3;8.649999;;;;;;;-10.94;100;97065.39;;;;
2021/02/14 02:03:58;;;;;;;13.3;8.649999;;;;;;;-10.94;100;97065.39;;;;
2021/02/14 02:05:03;;;;;;;13.3;8.649999;;;;;;;-10.94;100;97065.39;;;;
2021/02/14 02:06:05;;;;;;;13.3;8.649999;;;;;;;-10.94;100;97065.39;;;;
2021/02/14 02:07:06;;;;;;;13.3;8.649999;;;;;;;-10.94;100;97065.39;;;;
2021/02/14 02:08:08;;;;;;;13.3;8.649999;;;;;;;-10.94;100;97065.39;;;;
2021/02/14 02:09:08;;;;;;;13.3;8.649999;;;;;;;-10.94;100;97065.39;;;;
2021/02/14 02:10:09;;;;;;;13.3;8.649999;;;;;;;-10.94;100;97065.39;;;;
2021/02/14 02:11:11;;;;;;;13.3;8.649999;;;;;;;-10.94;100;97065.39;;;;
2021/02/14 02:12:12;;;;;;;13.3;8.649999;;;;;;;-10.94;100;97065.39;;;;
2021/02/14 02:13:13;;;;;;;13.3;8.649999;;;;;;;-10.94;100;97065.39;;;;
2021/02/14 02:14:14;;;;;;;13.65;8.95;;;;;;;-11.1;100;97056.91;;;;
2021/02/14 02:15:15;;;;;;;13.65;8.95;;;;;;;-11.1;100;97056.91;;;;
2021/02/14 02:16:16;;;;;;;13.65;8.95;;;;;;;-11.1;100;97056.91;;;;
2021/02/14 02:17:16;;;;;;;13.65;8.95;;;;;;;-11.1;100;97056.91;;;;
2021/02/14 02:18:17;;;;;;;13.65;8.95;;;;;;;-11.1;100;97056.91;;;;
2021/02/14 02:19:17;;;;;;;13.65;8.95;;;;;;;-11.1;100;97056.91;;;;
2021/02/14 02:20:18;;;;;;;13.65;8.95;;;;;;;-11.1;100;97056.91;;;;
2021/02/14 02:21:19;;;;;;;13.65;8.95;;;;;;;-11.1;100;97056.91;;;;
2021/02/14 02:22:20;;;;;;;13.65;8.95;;;;;;;-11.1;100;97056.91;;;;
2021/02/14 02:23:21;;;;;;;13.65;8.95;;;;;;;-11.1;100;97056.91;;;;
2021/02/14 02:24:22;;;;;;;13.85;8.6;;;;;;;-11.29;100;97055.53;;;;
2021/02/14 02:25:24;;;;;;;13.85;8.6;;;;;;;-11.29;100;97055.53;;;;
2021/02/14 02:26:25;;;;;;;13.85;8.6;;;;;;;-11.29;100;97055.53;;;;
2021/02/14 02:27:26;;;;;;;13.85;8.6;;;;;;;-11.29;100;97055.53;;;;
2021/02/14 02:28:26;;;;;;;13.85;8.6;;;;;;;-11.29;100;97055.53;;;;
2021/02/14 02:29:27;;;;;;;13.85;8.6;;;;;;;-11.29;100;97055.53;;;;
2021/02/14 02:30:27;;;;;;;13.85;8.6;;;;;;;-11.29;100;97055.53;;;;
2021/02/14 02:31:28;;;;;;;13.85;8.6;;;;;;;-11.29;100;97055.53;;;;
2021/02/14 02:32:28;;;;;;;13.85;8.6;;;;;;;-11.29;100;97055.53;;;;
2021/02/14 02:33:29;;;;;;;13.85;8.6;;;;;;;-11.29;100;97055.53;;;;
2021/02/14 02:34:30;;;;;;;13.85;8.6;;;;;;;-11.29;100;97055.53;;;;
2021/02/14 02:35:31;;;;;;;13.4;8.35;;;;;;;-11.5;100;97048.15;;;;
2021/02/14 02:36:31;;;;;;;13.4;8.35;;;;;;;-11.5;100;97048.15;;;;
2021/02/14 02:37:32;;;;;;;13.4;8.35;;;;;;;-11.5;100;97048.15;;;;
2021/02/14 02:38:32;;;;;;;13.4;8.35;;;;;;;-11.5;100;97048.15;;;;
2021/02/14 02:39:33;;;;;;;13.4;8.35;;;;;;;-11.5;100;97048.15;;;;
2021/02/14 02:40:33;;;;;;;13.4;8.35;;;;;;;-11.5;100;97048.15;;;;
2021/02/14 02:41:35;;;;;;;13.4;8.35;;;;;;;-11.5;100;97048.15;;;;
2021/02/14 02:42:35;;;;;;;13.4;8.35;;;;;;;-11.5;100;97048.15;;;;
2021/02/14 02:43:36;;;;;;;13.4;8.35;;;;;;;-11.5;100;97048.15;;;;
2021/02/14 02:44:37;;;;;;;13.4;8.35;;;;;;;-11.5;100;97048.15;;;;
2021/02/14 02:45:38;;;;;;;13.4;8.35;;;;;;;-11.5;100;97048.15;;;;
2021/02/14 02:46:39;;;;;;;12.45;8.299999;;;;;;;-11.65;100;97048.75;;;;
2021/02/14 02:47:39;;;;;;;12.45;8.299999;;;;;;;-11.65;100;97048.75;;;;
2021/02/14 02:48:40;;;;;;;12.45;8.299999;;;;;;;-11.65;100;97048.75;;;;
2021/02/14 02:49:40;;;;;;;12.45;8.299999;;;;;;;-11.65;100;97048.75;;;;
2021/02/14 02:50:41;;;;;;;12.45;8.299999;;;;;;;-11.65;100;97048.75;;;;
2021/02/14 02:51:42;;;;;;;12.45;8.299999;;;;;;;-11.65;100;97048.75;;;;
2021/02/14 02:52:42;;;;;;;12.45;8.299999;;;;;;;-11.65;100;97048.75;;;;
2021/02/14 02:53:43;;;;;;;12.45;8.299999;;;;;;;-11.65;100;97048.75;;;;
2021/02/14 02:54:43;;;;;;;12.45;8.299999;;;;;;;-11.65;100;97048.75;;;;
2021/02/14 02:55:44;;;;;;;12.45;8.299999;;;;;;;-11.65;100;97048.75;;;;
2021/02/14 02:56:45;;;;;;;15;9;;;;;;;-11.79;100;97046.71;;;;
2021/02/14 02:57:45;;;;;;;15;9;;;;;;;-11.79;100;97046.71;;;;
2021/02/14 02:58:46;;;;;;;15;9;;;;;;;-11.79;100;97046.71;;;;
2021/02/14 02:59:46;;;;;;;15;9;;;;;;;-11.79;100;97046.71;;;;
2021/02/14 03:00:47;;;;;;;15;9;;;;;;;-11.79;100;97046.71;;;;
2021/02/14 03:01:48;;;;;;;15;9;;;;;;;-11.79;100;97046.71;;;;
2021/02/14 03:02:48;;;;;;;15;9;;;;;;;-11.79;100;97046.71;;;;
2021/02/14 03:03:49;;;;;;;15;9;;;;;;;-11.79;100;97046.71;;;;
2021/02/14 03:04:49;;;;;;;15;9;;;;;;;-11.79;100;97046.71;;;;
2021/02/14 03:05:50;;;;;;;15;9;;;;;;;-11.79;100;97046.71;;;;
2021/02/14 03:06:51;;;;;;;15;9;;;;;;;-11.79;100;97046.71;;;;
2021/02/14 03:07:51;;;;;;;14.65;8.65;;;;;;;-11.85;100;97066.06;;;;
2021/02/14 03:08:52;;;;;;;14.65;8.65;;;;;;;-11.85;100;97066.06;;;;
2021/02/14 03:09:52;;;;;;;14.65;8.65;;;;;;;-11.85;100;97066.06;;;;
2021/02/14 03:10:53;;;;;;;14.65;8.65;;;;;;;-11.85;100;97066.06;;;;
2021/02/14 03:11:54;;;;;;;14.65;8.65;;;;;;;-11.85;100;97066.06;;;;
2021/02/14 03:12:54;;;;;;;14.65;8.65;;;;;;;-11.85;100;97066.06;;;;
2021/02/14 03:13:55;;;;;;;14.65;8.65;;;;;;;-11.85;100;97066.06;;;;
2021/02/14 03:14:56;;;;;;;14.65;8.65;;;;;;;-11.85;100;97066.06;;;;
2021/02/14 03:15:56;;;;;;;14.65;8.65;;;;;;;-11.85;100;97066.06;;;;
2021/02/14 03:16:57;;;;;;;14.65;8.65;;;;;;;-11.85;100;97066.06;;;;
2021/02/14 03:17:57;;;;;;;16.05;8.849999;;;;;;;-11.89;100;97079.22;;;;
2021/02/14 03:18:58;;;;;;;16.05;8.849999;;;;;;;-11.89;100;97079.22;;;;
2021/02/14 03:19:58;;;;;;;16.05;8.849999;;;;;;;-11.89;100;97079.22;;;;
2021/02/14 03:21:05;;;;;;;16.05;8.849999;;;;;;;-11.89;100;97079.22;;;;
2021/02/14 03:22:05;;;;;;;16.05;8.849999;;;;;;;-11.89;100;97079.22;;;;
2021/02/14 03:23:06;;;;;;;16.05;8.849999;;;;;;;-11.89;100;97079.22;;;;
2021/02/14 03:24:08;;;;;;;16.05;8.849999;;;;;;;-11.89;100;97079.22;;;;
2021/02/14 03:25:09;;;;;;;16.05;8.849999;;;;;;;-11.89;100;97079.22;;;;
2021/02/14 03:26:11;;;;;;;16.05;8.849999;;;;;;;-11.89;100;97079.22;;;;
2021/02/14 03:27:12;;;;;;;16.05;8.849999;;;;;;;-11.89;100;97079.22;;;;
2021/02/14 03:28:12;;;;;;;16.05;8.849999;;;;;;;-11.89;100;97079.22;;;;
2021/02/14 03:29:13;;;;;;;14.05;9;;;;;;;-11.97;100;97086.03;;;;
2021/02/14 03:30:13;;;;;;;14.05;9;;;;;;;-11.97;100;97086.03;;;;
2021/02/14 03:31:17;;;;;;;14.05;9;;;;;;;-11.97;100;97086.03;;;;
2021/02/14 03:32:17;;;;;;;14.05;9;;;;;;;-11.97;100;97086.03;;;;
2021/02/14 03:33:18;;;;;;;14.05;9;;;;;;;-11.97;100;97086.03;;;;
2021/02/14 03:34:18;;;;;;;14.05;9;;;;;;;-11.97;100;97086.03;;;;
2021/02/14 03:35:19;;;;;;;14.05;9;;;;;;;-11.97;100;97086.03;;;;
2021/02/14 03:36:21;;;;;;;14.05;9;;;;;;;-11.97;100;97086.03;;;;
2021/02/14 03:37:21;;;;;;;14.05;9;;;;;;;-11.97;100;97086.03;;;;
2021/02/14 03:38:22;;;;;;;14.05;9;;;;;;;-11.97;100;97086.03;;;;
2021/02/14 03:39:22;;;;;;;13.15;8.8;;;;;;;-12.08;100;97099.44;;;;
2021/02/14 03:40:23;;;;;;;13.15;8.8;;;;;;;-12.08;100;97099.44;;;;
2021/02/14 03:41:23;;;;;;;13.15;8.8;;;;;;;-12.08;100;97099.44;;;;
2021/02/14 03:42:24;;;;;;;13.15;8.8;;;;;;;-12.08;100;97099.44;;;;
2021/02/14 03:43:24;;;;;;;13.15;8.8;;;;;;;-12.08;100;97099.44;;;;
2021/02/14 03:44:25;;;;;;;13.15;8.8;;;;;;;-12.08;100;97099.44;;;;
2021/02/14 03:45:26;;;;;;;13.15;8.8;;;;;;;-12.08;100;97099.44;;;;
2021/02/14 03:46:28;;;;;;;13.15;8.8;;;;;;;-12.08;100;97099.44;;;;
2021/02/14 03:47:28;;;;;;;13.15;8.8;;;;;;;-12.08;100;97099.44;;;;
2021/02/14 03:48:29;;;;;;;13.15;8.8;;;;;;;-12.08;100;97099.44;;;;
2021/02/14 03:49:30;;;;;;;13.15;8.8;;;;;;;-12.08;100;97099.44;;;;
2021/02/14 03:50:30;;;;;;;15.5;9.2;;;;;;;-12.3;100;97109.78;;;;
2021/02/14 03:51:31;;;;;;;15.5;9.2;;;;;;;-12.3;100;97109.78;;;;
2021/02/14 03:52:31;;;;;;;15.5;9.2;;;;;;;-12.3;100;97109.78;;;;
2021/02/14 03:53:32;;;;;;;15.5;9.2;;;;;;;-12.3;100;97109.78;;;;
2021/02/14 03:54:33;;;;;;;15.5;9.2;;;;;;;-12.3;100;97109.78;;;;
2021/02/14 03:55:33;;;;;;;15.5;9.2;;;;;;;-12.3;100;97109.78;;;;
2021/02/14 03:56:34;;;;;;;15.5;9.2;;;;;;;-12.3;100;97109.78;;;;
2021/02/14 03:57:34;;;;;;;15.5;9.2;;;;;;;-12.3;100;97109.78;;;;
2021/02/14 03:58:35;;;;;;;15.5;9.2;;;;;;;-12.3;100;97109.78;;;;
2021/02/14 03:59:37;;;;;;;15.5;9.2;;;;;;;-12.3;100;97109.78;;;;
2021/02/14 04:00:37;;;;;;;15.5;9.2;;;;;;;-12.3;100;97109.78;;;;
2021/02/14 04:01:38;;;;;;;15.9;9.85;;;;;;;-12.45;100;97114.2;;;;
2021/02/14 04:02:38;;;;;;;15.9;9.85;;;;;;;-12.45;100;97114.2;;;;
2021/02/14 04:03:39;;;;;;;15.9;9.85;;;;;;;-12.45;100;97114.2;;;;
2021/02/14 04:04:39;;;;;;;15.9;9.85;;;;;;;-12.45;100;97114.2;;;;
2021/02/14 04:05:40;;;;;;;15.9;9.85;;;;;;;-12.45;100;97114.2;;;;
2021/02/14 04:06:42;;;;;;;15.9;9.85;;;;;;;-12.45;100;97114.2;;;;
2021/02/14 04:07:42;;;;;;;15.9;9.85;;;;;;;-12.45;100;97114.2;;;;
2021/02/14 04:08:43;;;;;;;15.9;9.85;;;;;;;-12.45;100;97114.2;;;;
2021/02/14 04:09:43;;;;;;;15.9;9.85;;;;;;;-12.45;100;97114.2;;;;
2021/02/14 04:10:44;;;;;;;15.9;9.85;;;;;;;-12.45;100;97114.2;;;;
2021/02/14 04:11:44;;;;;;;14.05;9.1;;;;;;;-12.43;100;97108.54;;;;
2021/02/14 04:12:45;;;;;;;14.05;9.1;;;;;;;-12.43;100;97108.54;;;;
2021/02/14 04:13:46;;;;;;;14.05;9.1;;;;;;;-12.43;100;97108.54;;;;
2021/02/14 04:14:48;;;;;;;14.05;9.1;;;;;;;-12.43;100;97108.54;;;;
2021/02/14 04:15:49;;;;;;;14.05;9.1;;;;;;;-12.43;100;97108.54;;;;
2021/02/14 04:16:50;;;;;;;14.05;9.1;;;;;;;-12.43;100;97108.54;;;;
2021/02/14 04:17:50;;;;;;;14.05;9.1;;;;;;;-12.43;100;97108.54;;;;
2021/02/14 04:18:51;;;;;;;14.05;9.1;;;;;;;-12.43;100;97108.54;;;;
2021/02/14 04:19:51;;;;;;;14.05;9.1;;;;;;;-12.43;100;97108.54;;;;
2021/02/14 04:20:52;;;;;;;14.05;9.1;;;;;;;-12.43;100;97108.54;;;;
2021/02/14 04:21:52;;;;;;;14.05;9.1;;;;;;;-12.43;100;97108.54;;;;
2021/02/14 04:22:53;;;;;;;15.2;9.550001;;;;;;;-12.55;100;97116.75;;;;
2021/02/14 04:23:54;;;;;;;15.2;9.550001;;;;;;;-12.55;100;97116.75;;;;
2021/02/14 04:24:55;;;;;;;15.2;9.550001;;;;;;;-12.55;100;97116.75;;;;
2021/02/14 04:25:55;;;;;;;15.2;9.550001;;;;;;;-12.55;100;97116.75;;;;
2021/02/14 04:26:56;;;;;;;15.2;9.550001;;;;;;;-12.55;100;97116.75;;;;
2021/02/14 04:27:56;;;;;;;15.2;9.550001;;;;;;;-12.55;100;97116.75;;;;
2021/02/14 04:28:57;;;;;;;15.2;9.550001;;;;;;;-12.55;100;97116.75;;;;
2021/02/14 04:29:57;;;;;;;15.2;9.550001;;;;;;;-12.55;100;97116.75;;;;
2021/02/14 04:30:58;;;;;;;15.2;9.550001;;;;;;;-12.55;100;97116.75;;;;
2021/02/14 04:31:58;;;;;;;15.2;9.550001;;;;;;;-12.55;100;97116.75;;;;
2021/02/14 04:32:59;;;;;;;15.2;9.550001;;;;;;;-12.55;100;97116.75;;;;
2021/02/14 04:33:59;;;;;;;15.2;9.550001;;;;;;;-12.55;100;97116.75;;;;
2021/02/14 04:35:00;;;;;;;15.2;9.550001;;;;;;;-12.55;100;97116.75;;;;
2021/02/14 04:36:01;;;;;;;15.2;9.550001;;;;;;;-12.55;100;97116.75;;;;
2021/02/14 04:37:01;;;;;;;15.2;9.550001;;;;;;;-12.55;100;97116.75;;;;
2021/02/14 04:38:02;;;;;;;15.2;9.550001;;;;;;;-12.55;100;97116.75;;;;
2021/02/14 04:39:02;;;;;;;15.2;9.550001;;;;;;;-12.55;100;97116.75;;;;
2021/02/14 04:40:04;;;;;;;15.2;9.550001;;;;;;;-12.55;100;97116.75;;;;
2021/02/14 04:41:06;;;;;;;15.2;9.550001;;;;;;;-12.55;100;97116.75;;;;
2021/02/14 04:42:07;;;;;;;15.2;9.550001;;;;;;;-12.55;100;97116.75;;;;
2021/02/14 04:43:08;;;;;;;15.2;9.550001;;;;;;;-12.55;100;97116.75;;;;
2021/02/14 04:44:09;;;;;;;16.4;9.800001;;;;;;;-12.59;100;97117.78;;;;
2021/02/14 04:45:09;;;;;;;16.4;9.800001;;;;;;;-12.59;100;97117.78;;;;
2021/02/14 04:46:11;;;;;;;16.4;9.800001;;;;;;;-12.59;100;97117.78;;;;
2021/02/14 04:47:11;;;;;;;16.4;9.800001;;;;;;;-12.59;100;97117.78;;;;
2021/02/14 04:48:12;;;;;;;16.4;9.800001;;;;;;;-12.59;100;97117.78;;;;
2021/02/14 04:49:12;;;;;;;16.4;9.800001;;;;;;;-12.59;100;97117.78;;;;
2021/02/14 04:50:13;;;;;;;16.4;9.800001;;;;;;;-12.59;100;97117.78;;;;
2021/02/14 04:51:13;;;;;;;16.4;9.800001;;;;;;;-12.59;100;97117.78;;;;
2021/02/14 04:52:14;;;;;;;16.4;9.800001;;;;;;;-12.59;100;97117.78;;;;
2021/02/14 04:53:14;;;;;;;16.4;9.800001;;;;;;;-12.59;100;97117.78;;;;
2021/02/14 04:54:15;;;;;;;16.4;9.800001;;;;;;;-12.59;100;97117.78;;;;
2021/02/14 04:55:16;;;;;;;15.65;10.25;;;;;;;-12.72;100;97113.89;;;;
2021/02/14 04:56:16;;;;;;;15.65;10.25;;;;;;;-12.72;100;97113.89;;;;
2021/02/14 04:57:16;;;;;;;15.65;10.25;;;;;;;-12.72;100;97113.89;;;;
2021/02/14 04:58:18;;;;;;;15.65;10.25;;;;;;;-12.72;100;97113.89;;;;
2021/02/14 04:59:19;;;;;;;15.65;10.25;;;;;;;-12.72;100;97113.89;;;;
2021/02/14 05:00:19;;;;;;;15.65;10.25;;;;;;;-12.72;100;97113.89;;;;
2021/02/14 05:01:20;;;;;;;15.65;10.25;;;;;;;-12.72;100;97113.89;;;;
2021/02/14 05:02:21;;;;;;;15.65;10.25;;;;;;;-12.72;100;97113.89;;;;
2021/02/14 05:03:21;;;;;;;15.65;10.25;;;;;;;-12.72;100;97113.89;;;;
2021/02/14 05:04:22;;;;;;;15.65;10.25;;;;;;;-12.72;100;97113.89;;;;
2021/02/14 05:05:22;;;;;;;14.9;9.7;;;;;;;-12.84;100;97120.76;;;;
2021/02/14 05:06:23;;;;;;;14.9;9.7;;;;;;;-12.84;100;97120.76;;;;
2021/02/14 05:07:23;;;;;;;14.9;9.7;;;;;;;-12.84;100;97120.76;;;;
2021/02/14 05:08:24;;;;;;;14.9;9.7;;;;;;;-12.84;100;97120.76;;;;
2021/02/14 05:09:24;;;;;;;14.9;9.7;;;;;;;-12.84;100;97120.76;;;;
2021/02/14 05:10:25;;;;;;;14.9;9.7;;;;;;;-12.84;100;97120.76;;;;
2021/02/14 05:11:26;;;;;;;14.9;9.7;;;;;;;-12.84;100;97120.76;;;;
2021/02/14 05:12:26;;;;;;;14.9;9.7;;;;;;;-12.84;100;97120.76;;;;
2021/02/14 05:13:27;;;;;;;14.9;9.7;;;;;;;-12.84;100;97120.76;;;;
2021/02/14 05:14:28;;;;;;;14.9;9.7;;;;;;;-12.84;100;97120.76;;;;
2021/02/14 05:15:28;;;;;;;14.9;9.7;;;;;;;-12.84;100;97120.76;;;;
2021/02/14 05:16:29;;;;;;;15.85;10.8;;;;;;;-12.88;100;97105.77;;;;
2021/02/14 05:17:29;;;;;;;15.85;10.8;;;;;;;-12.88;100;97105.77;;;;
2021/02/14 05:18:30;;;;;;;15.85;10.8;;;;;;;-12.88;100;97105.77;;;;
2021/02/14 05:19:30;;;;;;;15.85;10.8;;;;;;;-12.88;100;97105.77;;;;
2021/02/14 05:20:31;;;;;;;15.85;10.8;;;;;;;-12.88;100;97105.77;;;;
2021/02/14 05:21:31;;;;;;;15.85;10.8;;;;;;;-12.88;100;97105.77;;;;
2021/02/14 05:22:32;;;;;;;15.85;10.8;;;;;;;-12.88;100;97105.77;;;;
2021/02/14 05:23:42;;;;;;;15.85;10.8;;;;;;;-12.88;100;97105.77;;;;
2021/02/14 05:24:43;;;;;;;15.85;10.8;;;;;;;-12.88;100;97105.77;;;;
2021/02/14 05:25:43;;;;;;;15.85;10.8;;;;;;;-12.88;100;97105.77;;;;
2021/02/14 05:26:44;;;;;;;16.9;10.5;;;;;;;-12.92;100;97112.38;;;;
2021/02/14 05:27:45;;;;;;;16.9;10.5;;;;;;;-12.92;100;97112.38;;;;
2021/02/14 05:28:46;;;;;;;16.9;10.5;;;;;;;-12.92;100;97112.38;;;;
2021/02/14 05:29:46;;;;;;;16.9;10.5;;;;;;;-12.92;100;97112.38;;;;
2021/02/14 05:30:47;;;;;;;16.9;10.5;;;;;;;-12.92;100;97112.38;;;;
2021/02/14 05:31:47;;;;;;;16.9;10.5;;;;;;;-12.92;100;97112.38;;;;
2021/02/14 05:32:48;;;;;;;16.9;10.5;;;;;;;-12.92;100;97112.38;;;;
2021/02/14 05:33:48;;;;;;;16.9;10.5;;;;;;;-12.92;100;97112.38;;;;
2021/02/14 05:34:49;;;;;;;16.9;10.5;;;;;;;-12.92;100;97112.38;;;;
2021/02/14 05:35:50;;;;;;;16.9;10.5;;;;;;;-12.92;100;97112.38;;;;
2021/02/14 05:36:50;;;;;;;16.9;10.5;;;;;;;-12.92;100;97112.38;;;;
2021/02/14 05:37:51;;;;;;;16.95;10.6;;;;;;;-12.9;100;97110.6;;;;
2021/02/14 05:38:51;;;;;;;16.95;10.6;;;;;;;-12.9;100;97110.6;;;;
2021/02/14 05:39:52;;;;;;;16.95;10.6;;;;;;;-12.9;100;97110.6;;;;
2021/02/14 05:40:53;;;;;;;16.95;10.6;;;;;;;-12.9;100;97110.6;;;;
2021/02/14 05:41:53;;;;;;;16.95;10.6;;;;;;;-12.9;100;97110.6;;;;
2021/02/14 05:42:55;;;;;;;16.95;10.6;;;;;;;-12.9;100;97110.6;;;;
2021/02/14 05:43:55;;;;;;;16.95;10.6;;;;;;;-12.9;100;97110.6;;;;
2021/02/14 05:44:58;;;;;;;16.95;10.6;;;;;;;-12.9;100;97110.6;;;;
2021/02/14 05:46:00;;;;;;;16.95;10.6;;;;;;;-12.9;100;97110.6;;;;
2021/02/14 05:47:02;;;;;;;16.95;10.6;;;;;;;-12.9;100;97110.6;;;;
2021/02/14 05:48:02;;;;;;;15.45;10.45;;;;;;;-12.92;100;97106.33;;;;
2021/02/14 05:49:04;;;;;;;15.45;10.45;;;;;;;-12.92;100;97106.33;;;;
2021/02/14 05:50:07;;;;;;;15.45;10.45;;;;;;;-12.92;100;97106.33;;;;
2021/02/14 05:51:10;;;;;;;15.45;10.45;;;;;;;-12.92;100;97106.33;;;;
2021/02/14 05:52:12;;;;;;;15.45;10.45;;;;;;;-12.92;100;97106.33;;;;
2021/02/14 05:53:14;;;;;;;15.45;10.45;;;;;;;-12.92;100;97106.33;;;;
2021/02/14 05:54:14;;;;;;;15.45;10.45;;;;;;;-12.92;100;97106.33;;;;
2021/02/14 05:55:15;;;;;;;15.45;10.45;;;;;;;-12.92;100;97106.33;;;;
2021/02/14 05:56:16;;;;;;;15.45;10.45;;;;;;;-12.92;100;97106.33;;;;